Thornburg, Iowa
Current Conditions -  °F | °C
As of 11:35 AM on Saturday 25 Oct 2014 (Local Time) from KOOA Reporting Station
Clear Clear  
Wind Chill: 66°   Ceiling: Unl
Heat Index: 66°   Visibility: 10mi
Dew Point: 42°   Wind: 7mph
Humidity: 41%   Direction: 20°NNE
Pressure: 30.08"   Gusts: NA
Location:  41.45°N, 92.34°W
Report Text: KOOA 251635Z AUTO 02006KT 10SM CLR 19/06 A3008 RMK AO2 T01900056
Loading
Personal Weather Stations






























Interactive Weather Map
Tropical Storm Tracking
New forecast layout! Learn more

10-Day Weather Forecast

Advertisements
Track Severe Weather on mobile